MBW weather

Melbourne Moorabbin Airport
Melbourne, Victoria, Australia

Public forecast

Using degrees Celsius for public forecast. Weather courtesy of forecast.io.

METAR (pilot weather report)

Closest report is Melbourne Essendon Airport, 17.6 nm (32.7 km) NNW. Retrieved 2017/07/29 11:12 UTC (0 seconds ago):

YMEN 291112Z AUTO 34019G29KT 9999 // SCT054 SCT073 OVC093 16/05 Q1005

TAF (pilot weather forecast)

Closest forecast is Melbourne International Airport, 21.9 nm (40.6 km) NW. Retrieved 2017/07/29 06:33 UTC (4 hours ago):

TAF YMML 290514Z 2906/3012 36036G55KT CAVOK BECMG 2906/2908 36024G44KT CAVOK BECMG 2908/2910 36020G36KT 9999 -SHRA SCT080 BKN130 BECMG 2914/2916 34015G28KT 9999 -SHRA SCT040 SCT080 BECMG 2921/2923 29015G28KT 9999 -SHRA SCT040 BECMG 3008/3010 32010KT 9999 SCT045